Time;durP1;ratioP1;P1;durP2;ratioP2;P2;SDS_P1;SDS_P2;PMS_P1;PMS_P2;Temp;Humidity;BMP_temperature;BMP_pressure;BME280_temperature;BME280_humidity;BME280_pressure;Samples;Min_cycle;Max_cycle;Signal;HPM_P1;HPM_P2
2020/12/30 00:00:10;;;;;;;28.15;14.55;;;;;;;1.45;100.00;99186.38;4968479;28;20031;-70
2020/12/30 00:02:39;;;;;;;27.52;12.88;;;;;;;1.42;100.00;99181.25;4956909;28;20049;-70
2020/12/30 00:05:07;;;;;;;31.98;13.48;;;;;;;1.38;100.00;99187.63;4969230;28;20026;-69
2020/12/30 00:07:34;;;;;;;29.27;12.77;;;;;;;1.34;100.00;99191.38;4968662;28;20027;-70
2020/12/30 00:09:59;;;;;;;27.65;13.65;;;;;;;1.32;100.00;99180.00;4967785;28;20030;-69
2020/12/30 00:12:28;;;;;;;29.58;13.65;;;;;;;1.31;100.00;99183.59;4969248;28;20537;-70
2020/12/30 00:14:57;;;;;;;32.75;14.63;;;;;;;1.27;100.00;99176.75;4969087;28;20035;-70
2020/12/30 00:17:23;;;;;;;27.52;14.05;;;;;;;1.25;100.00;99185.69;4972133;28;20034;-70
2020/12/30 00:19:49;;;;;;;27.85;13.65;;;;;;;1.21;100.00;99182.34;4969399;28;20368;-69
2020/12/30 00:22:15;;;;;;;31.25;13.10;;;;;;;1.18;100.00;99183.34;4972802;28;20041;-69
2020/12/30 00:24:41;;;;;;;26.25;13.57;;;;;;;1.15;100.00;99188.81;4967674;28;20046;-70
2020/12/30 00:27:06;;;;;;;28.63;13.55;;;;;;;1.15;100.00;99187.97;4970698;28;20034;-69
2020/12/30 00:29:32;;;;;;;26.48;14.40;;;;;;;1.15;100.00;99187.97;4952666;28;20715;-70
2020/12/30 00:31:57;;;;;;;30.17;14.05;;;;;;;1.14;100.00;99186.25;4965338;28;20143;-69
2020/12/30 00:34:23;;;;;;;29.90;15.20;;;;;;;1.28;100.00;99183.75;4966565;28;20162;-69
2020/12/30 00:36:49;;;;;;;35.35;16.58;;;;;;;1.30;100.00;99189.81;4967025;28;20118;-70
2020/12/30 00:39:14;;;;;;;37.22;16.30;;;;;;;1.29;100.00;99180.19;4969675;28;20508;-70
2020/12/30 00:41:40;;;;;;;35.55;15.85;;;;;;;1.26;100.00;99182.97;4966737;28;20026;-69
2020/12/30 00:44:06;;;;;;;31.77;15.38;;;;;;;1.25;100.00;99188.34;4975253;28;20043;-69
2020/12/30 00:46:31;;;;;;;36.35;15.80;;;;;;;1.25;100.00;99177.75;4966613;28;20766;-69
2020/12/30 00:48:57;;;;;;;38.35;15.45;;;;;;;1.25;100.00;99194.47;4952029;28;20153;-70
2020/12/30 00:51:22;;;;;;;33.13;15.50;;;;;;;1.26;100.00;99188.25;4966418;28;20606;-70
2020/12/30 00:53:48;;;;;;;32.20;14.95;;;;;;;1.28;100.00;99199.63;4950968;28;20035;-70
2020/12/30 00:56:14;;;;;;;33.63;16.27;;;;;;;1.33;100.00;99189.66;4950509;28;20034;-69
2020/12/30 00:58:40;;;;;;;28.30;15.10;;;;;;;1.32;100.00;99195.88;4967871;28;20114;-69
2020/12/30 01:01:11;;;;;;;35.65;16.05;;;;;;;1.32;100.00;99201.16;4966011;28;20427;-70
2020/12/30 01:03:54;;;;;;;32.45;15.73;;;;;;;1.35;100.00;99200.16;4967427;28;20130;-70
2020/12/30 01:06:20;;;;;;;30.75;15.77;;;;;;;1.35;100.00;99201.03;4966575;28;20125;-69
2020/12/30 01:08:45;;;;;;;34.80;16.33;;;;;;;1.35;100.00;99206.31;4972439;28;20482;-69
2020/12/30 01:11:11;;;;;;;44.08;16.25;;;;;;;1.36;100.00;99205.34;4968360;28;20043;-69
2020/12/30 01:13:37;;;;;;;31.45;15.05;;;;;;;1.37;100.00;99204.41;4968371;28;20410;-70
2020/12/30 01:16:02;;;;;;;28.92;14.50;;;;;;;1.38;100.00;99206.13;4970904;28;20093;-69
2020/12/30 01:18:27;;;;;;;39.22;15.82;;;;;;;1.42;100.00;99209.50;4972168;28;20035;-70
2020/12/30 01:21:00;;;;;;;32.30;16.90;;;;;;;1.41;100.00;99208.63;4955406;28;20141;-70
2020/12/30 01:23:27;;;;;;;32.45;15.50;;;;;;;1.41;100.00;99211.28;4972545;28;20082;-70
2020/12/30 01:25:56;;;;;;;30.17;15.23;;;;;;;1.44;100.00;99212.91;4971981;28;20459;-70
2020/12/30 01:28:21;;;;;;;34.83;15.13;;;;;;;1.46;100.00;99218.97;4973120;28;20814;-70
2020/12/30 01:30:47;;;;;;;34.35;16.35;;;;;;;1.46;100.00;99211.03;4955835;28;20062;-70
2020/12/30 01:33:13;;;;;;;28.17;14.52;;;;;;;1.48;100.00;99217.09;4970108;28;20031;-69
2020/12/30 01:35:38;;;;;;;33.63;15.40;;;;;;;1.50;100.00;99216.06;4970774;28;20023;-70
2020/12/30 01:38:03;;;;;;;33.47;15.88;;;;;;;1.51;100.00;99223.09;4954639;28;20410;-70
2020/12/30 01:40:29;;;;;;;32.97;15.25;;;;;;;1.53;100.00;99223.88;4973166;28;20046;-69
2020/12/30 01:42:54;;;;;;;31.23;15.15;;;;;;;1.54;100.00;99227.38;4954813;28;20042;-70
2020/12/30 01:45:19;;;;;;;31.65;14.77;;;;;;;1.52;100.00;99230.09;4954702;28;20090;-70
2020/12/30 01:47:48;;;;;;;35.42;14.30;;;;;;;1.56;100.00;99230.78;4971671;28;20027;-70
2020/12/30 01:50:14;;;;;;;29.50;14.52;;;;;;;1.56;100.00;99230.78;4972336;28;20093;-70
2020/12/30 01:52:41;;;;;;;31.40;16.10;;;;;;;1.59;100.00;99236.78;4971079;28;20058;-70
2020/12/30 01:55:06;;;;;;;34.53;15.85;;;;;;;1.60;100.00;99233.16;4971227;28;20034;-70
2020/12/30 01:57:32;;;;;;;34.33;15.73;;;;;;;1.60;100.00;99233.16;4970068;28;20035;-70
2020/12/30 01:59:57;;;;;;;29.65;14.90;;;;;;;1.59;100.00;99238.56;4971369;28;20038;-70
2020/12/30 02:02:28;;;;;;;27.65;14.45;;;;;;;1.63;100.00;99243.59;4956087;28;20062;-70
2020/12/30 02:04:56;;;;;;;29.77;14.15;;;;;;;1.63;100.00;99240.09;4971116;28;20118;-70
2020/12/30 02:07:23;;;;;;;29.40;14.18;;;;;;;1.65;100.00;99245.31;4971448;28;20034;-70
2020/12/30 02:09:50;;;;;;;32.65;15.05;;;;;;;1.63;100.00;99246.25;4969710;28;20035;-70
2020/12/30 02:12:16;;;;;;;33.20;15.40;;;;;;;1.64;100.00;99244.47;4954913;28;20485;-70
2020/12/30 02:14:42;;;;;;;32.85;16.75;;;;;;;1.72;100.00;99241.44;4949011;28;20629;-70
2020/12/30 02:17:13;;;;;;;31.40;16.65;;;;;;;1.73;100.00;99245.78;4953281;28;20057;-69
2020/12/30 02:19:39;;;;;;;38.15;18.55;;;;;;;1.77;100.00;99239.41;4975561;28;20034;-70
2020/12/30 02:22:05;;;;;;;43.80;18.67;;;;;;;1.80;100.00;99248.00;4972435;28;20045;-70
2020/12/30 02:24:35;;;;;;;39.20;19.05;;;;;;;1.83;100.00;99244.38;4971739;28;20047;-70
2020/12/30 02:27:03;;;;;;;40.50;18.58;;;;;;;1.95;100.00;99249.88;4956943;28;20039;-70
2020/12/30 02:29:29;;;;;;;39.75;18.75;;;;;;;1.89;100.00;99249.34;4972986;28;20496;-70
2020/12/30 02:31:55;;;;;;;46.65;19.63;;;;;;;1.90;100.00;99246.63;4974652;28;20042;-70
2020/12/30 02:34:21;;;;;;;44.45;21.40;;;;;;;1.97;100.00;99248.00;4954120;28;20395;-70
2020/12/30 02:36:48;;;;;;;48.33;21.63;;;;;;;2.04;100.00;99256.44;4954747;28;20037;-70
2020/12/30 02:39:13;;;;;;;44.97;20.75;;;;;;;2.04;100.00;99256.44;4974386;28;20066;-70
2020/12/30 02:41:39;;;;;;;41.97;20.75;;;;;;;2.07;100.00;99258.09;4972919;28;20474;-70
2020/12/30 02:44:05;;;;;;;46.83;21.63;;;;;;;2.18;100.00;99256.56;4974484;28;20039;-70
2020/12/30 02:46:32;;;;;;;43.45;20.67;;;;;;;2.16;100.00;99247.84;4974550;28;20043;-70
2020/12/30 02:48:57;;;;;;;47.30;22.05;;;;;;;2.13;100.00;99258.63;4953947;28;20054;-70
2020/12/30 02:51:23;;;;;;;48.42;21.95;;;;;;;2.19;100.00;99263.59;4952937;28;20032;-70
2020/12/30 02:53:48;;;;;;;43.58;21.40;;;;;;;2.22;100.00;99263.41;4969527;28;20034;-70
2020/12/30 02:56:14;;;;;;;47.25;21.85;;;;;;;2.29;100.00;99269.22;4970686;28;20030;-70
2020/12/30 02:58:40;;;;;;;45.83;21.75;;;;;;;2.23;100.00;99265.13;4967781;28;20494;-70
2020/12/30 03:01:09;;;;;;;43.75;22.02;;;;;;;2.20;100.00;99269.75;4971762;28;20035;-70
2020/12/30 03:03:35;;;;;;;43.83;20.52;;;;;;;2.23;100.00;99265.13;4969018;28;20046;-70
2020/12/30 03:06:01;;;;;;;52.78;22.52;;;;;;;2.18;100.00;99272.47;4951764;28;20045;-70
2020/12/30 03:08:27;;;;;;;50.80;21.60;;;;;;;2.17;100.00;99268.09;4969690;28;20046;-70
2020/12/30 03:10:53;;;;;;;42.35;21.45;;;;;;;2.14;100.00;99276.22;4969813;28;20046;-70
2020/12/30 03:13:18;;;;;;;45.55;21.33;;;;;;;2.09;100.00;99272.97;4969903;28;20121;-70
2020/12/30 03:15:43;;;;;;;45.20;21.10;;;;;;;1.99;100.00;99267.28;4953246;28;20378;-70
2020/12/30 03:18:09;;;;;;;40.50;19.52;;;;;;;2.00;100.00;99276.06;4968311;28;20084;-70
2020/12/30 03:20:34;;;;;;;44.78;21.40;;;;;;;2.06;100.00;99273.13;4969542;28;20094;-70
2020/12/30 03:22:59;;;;;;;41.00;19.52;;;;;;;1.97;100.00;99276.25;4953008;28;20085;-70
2020/12/30 03:25:25;;;;;;;44.85;19.42;;;;;;;1.91;100.00;99273.94;4969269;28;20062;-70
2020/12/30 03:27:50;;;;;;;42.97;20.10;;;;;;;1.89;100.00;99289.00;4969035;28;20414;-70
2020/12/30 03:30:16;;;;;;;38.60;18.92;;;;;;;1.80;100.00;99282.41;4969223;28;20070;-70
2020/12/30 03:32:41;;;;;;;41.88;19.70;;;;;;;1.76;100.00;99287.94;4969048;28;20034;-70
2020/12/30 03:35:06;;;;;;;42.80;19.60;;;;;;;1.72;100.00;99294.31;4969751;28;20061;-70
2020/12/30 03:37:32;;;;;;;47.97;21.23;;;;;;;1.65;100.00;99296.44;4969157;28;20948;-70
2020/12/30 03:39:58;;;;;;;37.97;19.45;;;;;;;1.63;100.00;99291.22;4968711;28;20714;-70
2020/12/30 03:42:23;;;;;;;44.33;20.60;;;;;;;1.62;100.00;99297.41;4969043;28;20443;-70
2020/12/30 03:44:48;;;;;;;44.90;20.85;;;;;;;1.64;100.00;99300.00;4970887;28;20554;-70
2020/12/30 03:47:14;;;;;;;46.25;21.95;;;;;;;1.66;100.00;99300.78;4968185;28;20106;-70
2020/12/30 03:49:39;;;;;;;45.33;20.30;;;;;;;1.63;100.00;99295.63;4951491;28;20041;-70
2020/12/30 03:52:05;;;;;;;45.63;21.08;;;;;;;1.59;100.00;99302.88;4968580;28;20026;-70
2020/12/30 03:54:30;;;;;;;42.08;20.98;;;;;;;1.57;100.00;99294.16;4968370;28;20050;-70
2020/12/30 03:56:55;;;;;;;44.00;21.45;;;;;;;1.53;100.00;99300.53;4968406;28;20085;-70
2020/12/30 03:59:21;;;;;;;42.92;21.05;;;;;;;1.50;100.00;99300.69;4967739;28;20035;-70
2020/12/30 04:01:46;;;;;;;41.72;21.02;;;;;;;1.49;100.00;99304.25;4952876;28;20406;-69
2020/12/30 04:04:15;;;;;;;41.53;19.65;;;;;;;1.47;100.00;99300.84;4969654;28;20516;-70
2020/12/30 04:06:41;;;;;;;42.25;20.50;;;;;;;1.49;100.00;99301.59;4967245;28;20035;-70
2020/12/30 04:09:07;;;;;;;46.55;21.80;;;;;;;1.49;100.00;99309.53;4968257;28;20549;-70
2020/12/30 04:11:32;;;;;;;48.45;22.02;;;;;;;1.52;100.00;99301.47;4968343;28;20041;-70
2020/12/30 04:13:57;;;;;;;48.33;21.80;;;;;;;1.53;100.00;99305.84;4970205;28;20058;-70
2020/12/30 04:16:23;;;;;;;51.88;22.10;;;;;;;1.55;100.00;99316.31;4968120;28;20039;-70
2020/12/30 04:18:49;;;;;;;48.28;21.73;;;;;;;1.54;100.00;99312.81;4967895;28;20080;-70
2020/12/30 04:21:22;;;;;;;51.63;23.45;;;;;;;1.55;100.00;99318.94;4968750;28;20085;-70
2020/12/30 04:23:48;;;;;;;;;;;;;;;1.53;100.00;99313.75;4969493;28;20125;-69
2020/12/30 04:26:14;;;;;;;42.22;20.13;;;;;;;1.61;100.00;99316.00;4966516;28;19961;-70
2020/12/30 04:28:39;;;;;;;43.38;20.95;;;;;;;1.55;100.00;99317.16;4951456;28;20140;-70
2020/12/30 04:31:08;;;;;;;45.47;21.85;;;;;;;1.50;100.00;99316.53;4968384;28;20038;-70
2020/12/30 04:33:33;;;;;;;52.40;22.77;;;;;;;1.55;100.00;99319.81;4969534;28;20058;-70
2020/12/30 04:35:59;;;;;;;48.95;21.52;;;;;;;1.55;100.00;99309.22;4968456;28;21468;-70
2020/12/30 04:38:24;;;;;;;51.92;22.35;;;;;;;1.59;100.00;99318.75;4967904;28;20042;-70
2020/12/30 04:40:50;;;;;;;46.90;21.27;;;;;;;1.60;100.00;99317.78;4968571;28;20110;-70
2020/12/30 04:43:16;;;;;;;52.42;22.17;;;;;;;1.65;100.00;99319.38;4968461;28;20454;-70
2020/12/30 04:45:43;;;;;;;51.10;21.85;;;;;;;1.68;100.00;99320.06;4970621;28;20341;-70
2020/12/30 04:48:11;;;;;;;53.90;23.02;;;;;;;1.71;100.00;99313.78;4967493;28;20034;-70
2020/12/30 04:50:37;;;;;;;49.75;23.08;;;;;;;1.78;100.00;99323.09;4968094;28;20121;-70
2020/12/30 04:53:02;;;;;;;50.03;23.35;;;;;;;1.92;100.00;99325.88;4967411;28;20170;-70
2020/12/30 04:55:31;;;;;;;52.40;23.52;;;;;;;1.93;100.00;99324.94;4967385;28;20022;-70
2020/12/30 04:58:04;;;;;;;51.72;22.45;;;;;;;1.89;100.00;99326.06;4966952;28;20030;-70
2020/12/30 05:00:31;;;;;;;47.80;22.90;;;;;;;1.85;100.00;99327.16;4968450;28;20376;-70
2020/12/30 05:02:58;;;;;;;56.05;23.38;;;;;;;1.85;100.00;99327.97;4967737;28;20043;-70
2020/12/30 05:05:23;;;;;;;60.47;24.58;;;;;;;1.88;100.00;99326.97;4967794;28;20050;-70
2020/12/30 05:07:48;;;;;;;56.42;24.38;;;;;;;1.97;100.00;99326.53;4967194;28;20446;-70
2020/12/30 05:10:15;;;;;;;48.47;22.92;;;;;;;1.99;100.00;99317.56;4951477;28;20043;-70
2020/12/30 05:12:41;;;;;;;58.63;23.98;;;;;;;1.96;100.00;99325.66;4968742;28;20070;-70
2020/12/30 05:15:06;;;;;;;51.30;23.85;;;;;;;1.97;100.00;99323.88;4967527;28;20121;-70
2020/12/30 05:17:33;;;;;;;53.38;23.73;;;;;;;2.08;100.00;99334.75;4950650;28;20038;-70
2020/12/30 05:19:58;;;;;;;54.75;23.63;;;;;;;2.03;100.00;99321.78;4950170;28;20153;-70
2020/12/30 05:22:24;;;;;;;57.97;23.90;;;;;;;2.08;100.00;99326.81;4968030;28;20161;-70
2020/12/30 05:24:49;;;;;;;54.42;22.95;;;;;;;2.04;100.00;99335.84;4967940;28;20023;-70
2020/12/30 05:27:16;;;;;;;52.08;23.25;;;;;;;2.00;100.00;99335.16;4950353;28;20038;-70
2020/12/30 05:29:45;;;;;;;49.92;23.85;;;;;;;2.08;100.00;99329.47;4951675;28;20086;-70
2020/12/30 05:32:10;;;;;;;59.58;23.48;;;;;;;2.08;100.00;99340.06;4975127;28;20043;-70
2020/12/30 05:34:36;;;;;;;52.80;23.88;;;;;;;2.11;100.00;99344.31;4971321;28;20038;-70
2020/12/30 05:37:01;;;;;;;56.22;24.50;;;;;;;2.11;100.00;99345.19;4966980;28;20517;-70
2020/12/30 05:39:34;;;;;;;56.90;25.02;;;;;;;2.10;100.00;99342.63;4955052;28;20172;-69
2020/12/30 05:42:12;;;;;;;58.30;26.15;;;;;;;2.15;100.00;99362.63;4974890;28;20039;-70
2020/12/30 05:44:38;;;;;;;61.38;27.27;;;;;;;2.15;100.00;99357.34;4970029;28;20133;-70
2020/12/30 05:47:15;;;;;;;61.65;27.85;;;;;;;2.26;100.00;99359.41;4963175;28;20126;-70
2020/12/30 05:49:43;;;;;;;60.15;26.48;;;;;;;2.20;100.00;99365.03;4950471;28;20069;-70
2020/12/30 05:52:12;;;;;;;58.05;27.50;;;;;;;2.16;100.00;99368.78;4967645;28;20045;-70
2020/12/30 05:54:37;;;;;;;57.50;26.92;;;;;;;2.13;100.00;99364.47;4967801;28;20070;-70
2020/12/30 05:57:41;;;;;;;52.22;25.80;;;;;;;2.11;100.00;99374.28;4967519;28;20072;-70
2020/12/30 06:00:10;;;;;;;54.50;24.40;;;;;;;2.17;100.00;99365.16;4908227;29;20110;-70
2020/12/30 06:02:41;;;;;;;51.17;24.05;;;;;;;2.15;100.00;99377.66;4915482;29;20042;-70
2020/12/30 06:05:09;;;;;;;50.80;23.80;;;;;;;2.15;100.00;99373.22;4941087;28;20134;-70
2020/12/30 06:07:36;;;;;;;53.25;25.08;;;;;;;2.20;100.00;99365.88;4953322;28;20043;-70
2020/12/30 06:10:03;;;;;;;55.28;25.38;;;;;;;2.24;100.00;99371.88;4952562;28;20043;-70
2020/12/30 06:12:31;;;;;;;52.55;24.30;;;;;;;2.17;100.00;99371.31;4972034;28;20037;-70
2020/12/30 06:14:56;;;;;;;53.17;24.02;;;;;;;2.17;100.00;99370.47;4972248;28;20035;-71
2020/12/30 06:17:29;;;;;;;53.25;23.38;;;;;;;2.22;100.00;99377.22;4969687;28;20031;-70
2020/12/30 06:19:56;;;;;;;56.40;23.88;;;;;;;2.24;100.00;99378.00;4968955;28;20121;-71
2020/12/30 06:22:22;;;;;;;58.08;26.02;;;;;;;2.47;100.00;99378.63;4971521;28;20062;-70
2020/12/30 06:24:55;;;;;;;58.67;27.35;;;;;;;2.32;100.00;99386.44;4971112;28;20042;-70
2020/12/30 06:27:26;;;;;;;50.75;23.92;;;;;;;2.26;100.00;99391.19;4971520;28;20113;-70
2020/12/30 06:29:54;;;;;;;47.72;23.40;;;;;;;2.20;100.00;99387.06;4971301;28;20069;-70
2020/12/30 06:32:34;;;;;;;59.08;24.05;;;;;;;2.25;100.00;99379.72;4970896;28;20034;-70
2020/12/30 06:35:00;;;;;;;60.20;24.60;;;;;;;2.33;100.00;99389.94;4969818;28;20030;-70
2020/12/30 06:37:37;;;;;;;54.42;23.77;;;;;;;2.25;100.00;99392.97;4970315;28;20558;-70
2020/12/30 06:40:36;;;;;;;50.30;23.92;;;;;;;2.24;100.00;99401.84;4969942;28;20463;-70
2020/12/30 06:43:02;;;;;;;49.95;23.15;;;;;;;2.33;100.00;99406.69;4968263;28;20117;-70
2020/12/30 06:45:43;;;;;;;53.05;23.08;;;;;;;2.21;100.00;99409.97;4971917;28;20451;-70
2020/12/30 06:48:10;;;;;;;53.53;24.90;;;;;;;2.27;100.00;99403.50;4972095;28;20026;-70
2020/12/30 06:50:35;;;;;;;52.90;25.15;;;;;;;2.27;100.00;99414.06;4971290;28;20035;-70
2020/12/30 06:53:24;;;;;;;52.33;24.08;;;;;;;2.26;100.00;99423.81;4956624;28;20558;-70
2020/12/30 06:55:49;;;;;;;58.55;24.92;;;;;;;2.24;100.00;99419.50;4953935;28;20057;-70
2020/12/30 06:58:53;;;;;;;64.85;26.77;;;;;;;2.30;100.00;99430.66;4968439;28;20407;-70
2020/12/30 07:01:21;;;;;;;53.42;23.60;;;;;;;2.28;100.00;99429.88;4926789;29;20169;-70
2020/12/30 07:03:48;;;;;;;62.13;24.65;;;;;;;2.30;100.00;99433.28;4897760;29;20046;-70
2020/12/30 07:06:35;;;;;;;57.97;25.73;;;;;;;2.46;100.00;99435.16;4927673;28;20158;-70
2020/12/30 07:09:06;;;;;;;53.10;23.88;;;;;;;2.40;100.00;99447.78;4970365;28;20057;-70
2020/12/30 07:11:50;;;;;;;64.85;26.02;;;;;;;2.48;100.00;99443.88;4970251;28;20043;-70
2020/12/30 07:14:27;;;;;;;55.72;24.88;;;;;;;2.51;100.00;99454.31;4968061;28;20038;-70
2020/12/30 07:16:57;;;;;;;64.03;26.27;;;;;;;2.55;100.00;99450.56;4953656;28;20045;-70
2020/12/30 07:19:28;;;;;;;64.25;25.45;;;;;;;2.47;100.00;99458.06;4970760;28;20062;-70
2020/12/30 07:22:16;;;;;;;59.33;25.75;;;;;;;2.42;100.00;99459.16;4969687;28;20039;-70
2020/12/30 07:24:48;;;;;;;64.72;25.88;;;;;;;2.54;100.00;99465.59;4968414;28;20056;-70
2020/12/30 07:27:15;;;;;;;59.75;24.65;;;;;;;2.56;100.00;99462.88;4952729;28;20460;-70
2020/12/30 07:29:45;;;;;;;55.58;23.75;;;;;;;2.74;100.00;99472.50;4968421;28;20045;-70
2020/12/30 07:32:13;;;;;;;67.30;25.27;;;;;;;2.80;100.00;99480.16;4970767;28;20108;-70
2020/12/30 07:34:47;;;;;;;52.75;24.10;;;;;;;2.74;100.00;99477.81;4971089;28;20031;-71
2020/12/30 07:37:14;;;;;;;55.58;24.20;;;;;;;2.75;100.00;99480.41;4967634;28;20047;-70
2020/12/30 07:39:42;;;;;;;59.13;24.48;;;;;;;2.79;100.00;99489.03;4970095;28;20149;-70
2020/12/30 07:42:12;;;;;;;61.25;24.48;;;;;;;2.77;100.00;99499.72;4970225;28;20031;-71
2020/12/30 07:44:44;;;;;;;58.47;23.48;;;;;;;2.77;100.00;99498.88;4956009;28;20035;-71
2020/12/30 07:47:10;;;;;;;53.03;24.35;;;;;;;2.73;100.00;99502.59;4970544;28;20034;-73
2020/12/30 07:49:36;;;;;;;57.67;24.13;;;;;;;2.80;100.00;99515.44;4953625;28;20054;-71
2020/12/30 07:52:03;;;;;;;58.22;23.17;;;;;;;2.78;100.00;99504.06;4950863;28;20047;-70
2020/12/30 07:54:30;;;;;;;54.42;23.20;;;;;;;2.73;100.00;99507.88;4968446;28;20502;-70
2020/12/30 07:57:06;;;;;;;53.00;24.52;;;;;;;2.88;100.00;99511.56;4968249;28;20600;-70
2020/12/30 07:59:33;;;;;;;48.28;23.17;;;;;;;2.72;100.00;99511.47;4968826;28;20047;-71
2020/12/30 08:02:05;;;;;;;51.40;23.42;;;;;;;2.78;100.00;99529.69;4951088;28;20461;-70
2020/12/30 08:04:35;;;;;;;68.60;28.83;;;;;;;2.84;100.00;99521.44;4965994;28;20046;-71
2020/12/30 08:07:05;;;;;;;63.28;27.50;;;;;;;2.91;100.00;99521.97;4968478;28;20399;-70
2020/12/30 08:09:36;;;;;;;60.75;26.80;;;;;;;2.80;100.00;99528.69;4970156;28;20066;-71
2020/12/30 08:12:06;;;;;;;54.90;23.58;;;;;;;2.86;100.00;99540.78;4951006;28;20038;-71
2020/12/30 08:14:33;;;;;;;64.35;26.50;;;;;;;2.82;100.00;99526.84;4969640;28;20058;-71
2020/12/30 08:17:12;;;;;;;67.33;26.37;;;;;;;3.01;100.00;99545.28;4968830;28;20034;-72
2020/12/30 08:19:49;;;;;;;64.55;25.80;;;;;;;2.89;100.00;99545.06;4969846;28;20404;-72
2020/12/30 08:22:23;;;;;;;56.53;23.88;;;;;;;2.82;100.00;99548.03;4967019;28;20038;-72
2020/12/30 08:24:54;;;;;;;66.78;27.42;;;;;;;2.90;100.00;99544.13;4969257;28;20050;-72
2020/12/30 08:27:28;;;;;;;68.10;27.80;;;;;;;2.90;100.00;99547.63;4968696;28;20034;-71
2020/12/30 08:29:54;;;;;;;72.40;31.40;;;;;;;2.84;100.00;99558.53;4970227;28;20051;-71
2020/12/30 08:32:44;;;;;;;72.82;30.52;;;;;;;2.91;100.00;99557.28;4969166;28;20047;-71
2020/12/30 08:35:09;;;;;;;66.20;28.75;;;;;;;2.97;100.00;99556.97;4968409;28;20027;-71
2020/12/30 08:37:38;;;;;;;82.80;36.50;;;;;;;2.95;100.00;99550.91;4968558;28;20108;-71
2020/12/30 08:40:03;;;;;;;89.68;36.03;;;;;;;2.93;100.00;99563.38;4968610;28;20034;-72
2020/12/30 08:42:52;;;;;;;73.53;31.65;;;;;;;3.03;100.00;99559.28;4967540;28;20086;-71
2020/12/30 08:45:32;;;;;;;77.00;33.90;;;;;;;3.12;100.00;99558.84;4969725;28;20034;-71
2020/12/30 08:48:06;;;;;;;71.18;31.67;;;;;;;3.31;100.00;99563.16;4951919;28;20112;-71
2020/12/30 08:50:32;;;;;;;64.43;28.70;;;;;;;3.25;100.00;99562.56;4968611;28;20042;-71
2020/12/30 08:52:58;;;;;;;77.68;33.72;;;;;;;3.17;100.00;99572.69;4967305;28;20061;-71
2020/12/30 08:55:23;;;;;;;88.57;34.40;;;;;;;3.24;100.00;99574.09;4969153;28;20123;-71
2020/12/30 08:57:49;;;;;;;80.82;35.67;;;;;;;3.21;100.00;99566.28;4968934;28;20379;-71
2020/12/30 09:00:18;;;;;;;98.90;42.47;;;;;;;3.36;100.00;99575.25;4967402;28;20026;-71
2020/12/30 09:02:44;;;;;;;85.38;35.30;;;;;;;3.44;100.00;99582.78;4971529;28;20086;-71
2020/12/30 09:05:10;;;;;;;80.50;32.80;;;;;;;3.46;100.00;99572.94;4966527;28;20027;-71
2020/12/30 09:07:37;;;;;;;75.88;30.50;;;;;;;3.42;100.00;99576.72;4969333;28;20532;-71
2020/12/30 09:10:08;;;;;;;79.07;32.63;;;;;;;3.58;100.00;99577.63;4967944;28;20110;-71
2020/12/30 09:12:34;;;;;;;76.07;30.05;;;;;;;3.55;100.00;99575.13;4969009;28;20046;-71
2020/12/30 09:15:00;;;;;;;79.80;33.30;;;;;;;3.57;100.00;99574.09;4966646;28;20022;-71
2020/12/30 09:17:27;;;;;;;63.38;26.40;;;;;;;3.62;100.00;99579.16;4969942;28;20407;-71
2020/12/30 09:20:09;;;;;;;79.93;32.83;;;;;;;3.51;100.00;99586.84;4971669;28;20038;-71
2020/12/30 09:22:35;;;;;;;80.95;31.60;;;;;;;3.46;100.00;99591.50;4968884;28;20061;-71
2020/12/30 09:25:00;;;;;;;77.78;29.20;;;;;;;3.65;100.00;99584.28;4967654;28;20562;-71
2020/12/30 09:27:31;;;;;;;56.28;24.45;;;;;;;3.60;100.00;99589.84;4966084;28;20092;-71
2020/12/30 09:30:09;;;;;;;65.28;28.73;;;;;;;3.63;100.00;99591.50;4950255;28;20093;-71
2020/12/30 09:32:34;;;;;;;63.97;27.08;;;;;;;3.69;100.00;99595.59;4952364;28;20066;-70
2020/12/30 09:35:11;;;;;;;70.50;29.30;;;;;;;3.64;100.00;99596.69;4969464;28;20510;-71
2020/12/30 09:37:37;;;;;;;60.58;26.15;;;;;;;3.85;100.00;99599.97;4953280;28;20561;-71
2020/12/30 09:40:12;;;;;;;79.95;35.10;;;;;;;3.85;100.00;99607.94;4978535;28;20035;-71
2020/12/30 09:42:38;;;;;;;66.03;29.40;;;;;;;3.82;100.00;99607.28;4972525;28;20101;-71
2020/12/30 09:45:06;;;;;;;68.95;28.73;;;;;;;3.89;100.00;99603.34;4968284;28;20045;-70
2020/12/30 09:47:32;;;;;;;68.40;28.13;;;;;;;3.98;100.00;99613.44;4972677;28;20490;-71
2020/12/30 09:49:58;;;;;;;58.28;23.90;;;;;;;4.02;100.00;99610.53;4970375;28;20039;-71
2020/12/30 09:52:24;;;;;;;58.25;24.77;;;;;;;4.05;100.00;99621.00;4969257;28;20137;-71
2020/12/30 09:54:49;;;;;;;54.92;24.02;;;;;;;4.15;100.00;99625.78;4972085;28;20026;-71
2020/12/30 09:57:14;;;;;;;56.35;25.23;;;;;;;4.31;100.00;99626.66;4969963;28;20399;-71
2020/12/30 09:59:42;;;;;;;52.95;23.85;;;;;;;4.29;100.00;99625.88;4955257;28;20121;-71
2020/12/30 10:02:07;;;;;;;53.20;22.20;;;;;;;4.29;100.00;99631.19;4970902;28;20490;-71
2020/12/30 10:04:32;;;;;;;52.58;23.58;;;;;;;4.43;100.00;99623.31;4972296;28;20038;-70
2020/12/30 10:06:58;;;;;;;49.13;22.10;;;;;;;4.41;100.00;99623.38;4971734;28;20732;-70
2020/12/30 10:09:23;;;;;;;49.30;22.60;;;;;;;4.58;100.00;99619.75;4970750;28;20437;-71
2020/12/30 10:11:50;;;;;;;51.65;21.95;;;;;;;4.63;100.00;99625.66;4972484;28;20131;-71
2020/12/30 10:14:16;;;;;;;53.60;22.98;;;;;;;4.72;100.00;99622.50;4972455;28;20086;-70
2020/12/30 10:16:41;;;;;;;45.90;21.80;;;;;;;4.88;100.00;99623.31;4973066;28;20495;-70
2020/12/30 10:19:07;;;;;;;54.58;22.67;;;;;;;4.92;100.00;99625.78;4971227;28;20130;-70
2020/12/30 10:21:32;;;;;;;54.70;22.27;;;;;;;4.99;100.00;99625.34;4967766;28;20302;-71
2020/12/30 10:23:58;;;;;;;51.42;21.27;;;;;;;5.00;100.00;99635.03;4977248;28;20077;-70
2020/12/30 10:26:24;;;;;;;44.80;21.35;;;;;;;5.15;100.00;99635.94;4973044;28;20125;-71
2020/12/30 10:28:50;;;;;;;48.25;20.50;;;;;;;5.02;100.00;99634.94;4975831;28;20050;-71
2020/12/30 10:31:15;;;;;;;50.53;22.20;;;;;;;5.14;100.00;99639.53;4976705;28;20042;-70
2020/12/30 10:33:41;;;;;;;46.83;19.95;;;;;;;5.11;100.00;99640.59;4972103;28;20045;-70
2020/12/30 10:36:08;;;;;;;45.20;20.52;;;;;;;5.01;100.00;99644.72;4976318;28;20069;-70
2020/12/30 10:38:33;;;;;;;43.65;19.08;;;;;;;5.10;100.00;99643.34;4973390;28;20038;-71
2020/12/30 10:40:59;;;;;;;45.17;22.65;;;;;;;5.02;100.00;99650.91;4959198;28;20038;-70
2020/12/30 10:43:24;;;;;;;65.75;29.80;;;;;;;5.03;100.00;99649.94;4975999;28;20371;-70
2020/12/30 10:45:50;;;;;;;48.05;21.38;;;;;;;5.03;100.00;99652.59;4972953;28;20026;-71
2020/12/30 10:48:15;;;;;;;54.17;24.50;;;;;;;4.96;100.00;99648.59;4970772;28;20407;-71
2020/12/30 10:50:41;;;;;;;52.47;24.65;;;;;;;4.94;100.00;99647.84;4954620;28;20041;-71
2020/12/30 10:53:07;;;;;;;49.53;23.88;;;;;;;4.98;100.00;99646.72;4970306;28;20124;-70
2020/12/30 10:55:32;;;;;;;55.55;25.27;;;;;;;5.07;100.00;99659.44;4971773;28;20753;-71
2020/12/30 10:57:58;;;;;;;53.67;23.75;;;;;;;5.04;100.00;99657.00;4971160;28;20039;-71
2020/12/30 11:00:24;;;;;;;58.08;26.10;;;;;;;5.12;100.00;99658.22;4940103;28;20027;-71
2020/12/30 11:02:49;;;;;;;52.63;23.92;;;;;;;5.00;100.00;99658.13;4969362;28;20400;-71
2020/12/30 11:05:15;;;;;;;53.78;24.67;;;;;;;5.18;100.00;99654.38;4970254;28;20031;-70
2020/12/30 11:07:40;;;;;;;51.53;21.33;;;;;;;5.06;100.00;99663.09;4971418;28;20118;-71
2020/12/30 11:10:05;;;;;;;44.33;19.48;;;;;;;5.11;100.00;99666.31;4971074;28;20035;-70
2020/12/30 11:12:31;;;;;;;45.97;21.10;;;;;;;5.17;100.00;99660.66;4970277;28;20042;-71
2020/12/30 11:14:56;;;;;;;40.28;18.50;;;;;;;5.17;100.00;99650.00;4969659;28;20019;-70
2020/12/30 11:17:22;;;;;;;48.75;20.17;;;;;;;5.24;100.00;99662.84;4971219;28;20042;-71
2020/12/30 11:19:47;;;;;;;46.28;19.05;;;;;;;5.28;100.00;99655.53;4957548;28;20105;-71